sensor_id;sensor_type;location;lat;lon;timestamp;P1;durP1;ratioP1;P2;durP2;ratioP2
5937;SDS011;2994;51.220;4.412;2022-12-17T00:02:15;24.33;;;21.70;;
5937;SDS011;2994;51.220;4.412;2022-12-17T00:04:59;26.00;;;21.13;;
5937;SDS011;2994;51.220;4.412;2022-12-17T00:07:44;25.00;;;20.30;;
5937;SDS011;2994;51.220;4.412;2022-12-17T00:10:28;25.30;;;21.80;;
5937;SDS011;2994;51.220;4.412;2022-12-17T00:13:18;24.97;;;21.33;;
5937;SDS011;2994;51.220;4.412;2022-12-17T00:16:04;26.80;;;22.83;;
5937;SDS011;2994;51.220;4.412;2022-12-17T00:18:48;26.10;;;22.03;;
5937;SDS011;2994;51.220;4.412;2022-12-17T00:21:32;25.20;;;22.57;;
5937;SDS011;2994;51.220;4.412;2022-12-17T00:24:16;27.23;;;23.13;;
5937;SDS011;2994;51.220;4.412;2022-12-17T00:26:59;25.37;;;22.23;;
5937;SDS011;2994;51.220;4.412;2022-12-17T00:29:43;28.53;;;20.60;;
5937;SDS011;2994;51.220;4.412;2022-12-17T00:32:27;22.20;;;19.80;;
5937;SDS011;2994;51.220;4.412;2022-12-17T00:35:11;27.87;;;21.87;;
5937;SDS011;2994;51.220;4.412;2022-12-17T00:37:55;23.57;;;21.03;;
5937;SDS011;2994;51.220;4.412;2022-12-17T00:40:39;25.80;;;22.30;;
5937;SDS011;2994;51.220;4.412;2022-12-17T00:43:23;26.47;;;22.20;;
5937;SDS011;2994;51.220;4.412;2022-12-17T00:46:07;27.17;;;24.00;;
5937;SDS011;2994;51.220;4.412;2022-12-17T00:48:51;23.47;;;20.70;;
5937;SDS011;2994;51.220;4.412;2022-12-17T00:51:34;23.00;;;20.57;;
5937;SDS011;2994;51.220;4.412;2022-12-17T00:54:18;24.63;;;22.33;;
5937;SDS011;2994;51.220;4.412;2022-12-17T00:57:02;25.30;;;21.10;;
5937;SDS011;2994;51.220;4.412;2022-12-17T00:59:46;24.10;;;20.70;;
5937;SDS011;2994;51.220;4.412;2022-12-17T01:02:30;26.07;;;22.37;;
5937;SDS011;2994;51.220;4.412;2022-12-17T01:05:17;27.00;;;21.00;;
5937;SDS011;2994;51.220;4.412;2022-12-17T01:08:08;26.00;;;21.40;;
5937;SDS011;2994;51.220;4.412;2022-12-17T01:10:57;24.90;;;20.93;;
5937;SDS011;2994;51.220;4.412;2022-12-17T01:13:42;23.87;;;20.23;;
5937;SDS011;2994;51.220;4.412;2022-12-17T01:16:26;22.03;;;19.80;;
5937;SDS011;2994;51.220;4.412;2022-12-17T01:19:10;25.20;;;22.37;;
5937;SDS011;2994;51.220;4.412;2022-12-17T01:21:54;25.60;;;21.73;;
5937;SDS011;2994;51.220;4.412;2022-12-17T01:24:38;23.87;;;21.30;;
5937;SDS011;2994;51.220;4.412;2022-12-17T01:27:22;29.93;;;22.90;;
5937;SDS011;2994;51.220;4.412;2022-12-17T01:30:06;28.67;;;22.53;;
5937;SDS011;2994;51.220;4.412;2022-12-17T01:32:50;24.20;;;21.60;;
5937;SDS011;2994;51.220;4.412;2022-12-17T01:35:34;24.70;;;20.60;;
5937;SDS011;2994;51.220;4.412;2022-12-17T01:38:18;23.10;;;20.67;;
5937;SDS011;2994;51.220;4.412;2022-12-17T01:41:02;26.87;;;20.57;;
5937;SDS011;2994;51.220;4.412;2022-12-17T01:43:47;24.87;;;21.33;;
5937;SDS011;2994;51.220;4.412;2022-12-17T01:46:53;26.73;;;21.67;;
5937;SDS011;2994;51.220;4.412;2022-12-17T01:49:37;27.73;;;23.47;;
5937;SDS011;2994;51.220;4.412;2022-12-17T01:52:21;24.93;;;21.00;;
5937;SDS011;2994;51.220;4.412;2022-12-17T01:55:05;25.00;;;20.57;;
5937;SDS011;2994;51.220;4.412;2022-12-17T01:57:49;22.93;;;20.63;;
5937;SDS011;2994;51.220;4.412;2022-12-17T02:00:33;25.07;;;21.47;;
5937;SDS011;2994;51.220;4.412;2022-12-17T02:03:18;23.80;;;20.70;;
5937;SDS011;2994;51.220;4.412;2022-12-17T02:06:16;31.57;;;21.67;;
5937;SDS011;2994;51.220;4.412;2022-12-17T02:12:16;24.77;;;20.70;;
5937;SDS011;2994;51.220;4.412;2022-12-17T02:15:20;25.67;;;22.20;;
5937;SDS011;2994;51.220;4.412;2022-12-17T02:18:14;24.17;;;21.67;;
5937;SDS011;2994;51.220;4.412;2022-12-17T02:21:04;26.80;;;20.83;;
5937;SDS011;2994;51.220;4.412;2022-12-17T02:29:30;24.63;;;20.33;;
5937;SDS011;2994;51.220;4.412;2022-12-17T02:32:18;24.70;;;21.50;;
5937;SDS011;2994;51.220;4.412;2022-12-17T02:35:09;24.27;;;21.57;;
5937;SDS011;2994;51.220;4.412;2022-12-17T02:37:57;22.80;;;20.37;;
5937;SDS011;2994;51.220;4.412;2022-12-17T02:40:40;26.17;;;21.73;;
5937;SDS011;2994;51.220;4.412;2022-12-17T02:43:25;24.30;;;21.87;;
5937;SDS011;2994;51.220;4.412;2022-12-17T02:46:12;22.27;;;20.07;;
5937;SDS011;2994;51.220;4.412;2022-12-17T02:48:57;24.17;;;21.13;;
5937;SDS011;2994;51.220;4.412;2022-12-17T02:51:41;23.67;;;20.50;;
5937;SDS011;2994;51.220;4.412;2022-12-17T02:54:30;24.87;;;22.27;;
5937;SDS011;2994;51.220;4.412;2022-12-17T02:57:15;25.80;;;21.37;;
5937;SDS011;2994;51.220;4.412;2022-12-17T02:59:59;29.07;;;23.30;;
5937;SDS011;2994;51.220;4.412;2022-12-17T03:02:43;28.47;;;24.33;;
5937;SDS011;2994;51.220;4.412;2022-12-17T03:05:27;27.80;;;22.70;;
5937;SDS011;2994;51.220;4.412;2022-12-17T03:08:11;24.80;;;22.30;;
5937;SDS011;2994;51.220;4.412;2022-12-17T03:10:55;24.60;;;21.33;;
5937;SDS011;2994;51.220;4.412;2022-12-17T03:13:39;25.57;;;22.90;;
5937;SDS011;2994;51.220;4.412;2022-12-17T03:16:23;24.37;;;21.93;;
5937;SDS011;2994;51.220;4.412;2022-12-17T03:19:08;24.90;;;22.30;;
5937;SDS011;2994;51.220;4.412;2022-12-17T03:21:52;27.43;;;22.33;;
5937;SDS011;2994;51.220;4.412;2022-12-17T03:24:36;26.63;;;22.93;;
5937;SDS011;2994;51.220;4.412;2022-12-17T03:27:20;26.33;;;22.80;;
5937;SDS011;2994;51.220;4.412;2022-12-17T03:30:04;25.40;;;22.60;;
5937;SDS011;2994;51.220;4.412;2022-12-17T03:32:48;26.90;;;24.13;;
5937;SDS011;2994;51.220;4.412;2022-12-17T03:35:32;27.43;;;24.47;;
5937;SDS011;2994;51.220;4.412;2022-12-17T03:38:16;26.73;;;24.03;;
5937;SDS011;2994;51.220;4.412;2022-12-17T03:41:00;26.10;;;23.50;;
5937;SDS011;2994;51.220;4.412;2022-12-17T03:43:44;24.17;;;21.73;;
5937;SDS011;2994;51.220;4.412;2022-12-17T03:46:28;25.70;;;22.90;;
5937;SDS011;2994;51.220;4.412;2022-12-17T03:49:12;26.63;;;23.83;;
5937;SDS011;2994;51.220;4.412;2022-12-17T03:51:56;28.27;;;24.50;;
5937;SDS011;2994;51.220;4.412;2022-12-17T03:54:40;30.10;;;23.90;;
5937;SDS011;2994;51.220;4.412;2022-12-17T03:57:24;25.83;;;23.10;;
5937;SDS011;2994;51.220;4.412;2022-12-17T04:00:08;25.57;;;23.00;;
5937;SDS011;2994;51.220;4.412;2022-12-17T04:02:53;28.37;;;23.33;;
5937;SDS011;2994;51.220;4.412;2022-12-17T04:05:37;27.07;;;23.77;;
5937;SDS011;2994;51.220;4.412;2022-12-17T04:08:24;26.97;;;23.33;;
5937;SDS011;2994;51.220;4.412;2022-12-17T04:11:08;28.43;;;25.37;;
5937;SDS011;2994;51.220;4.412;2022-12-17T04:13:52;25.90;;;23.43;;
5937;SDS011;2994;51.220;4.412;2022-12-17T04:16:36;26.07;;;23.37;;
5937;SDS011;2994;51.220;4.412;2022-12-17T04:19:40;25.87;;;23.27;;
5937;SDS011;2994;51.220;4.412;2022-12-17T04:22:24;27.77;;;25.07;;
5937;SDS011;2994;51.220;4.412;2022-12-17T04:25:08;26.77;;;24.07;;
5937;SDS011;2994;51.220;4.412;2022-12-17T04:27:52;29.40;;;23.60;;
5937;SDS011;2994;51.220;4.412;2022-12-17T04:30:36;25.43;;;22.80;;
5937;SDS011;2994;51.220;4.412;2022-12-17T04:33:20;28.23;;;25.40;;
5937;SDS011;2994;51.220;4.412;2022-12-17T04:36:03;25.17;;;22.47;;
5937;SDS011;2994;51.220;4.412;2022-12-17T04:38:47;31.87;;;24.27;;
5937;SDS011;2994;51.220;4.412;2022-12-17T04:41:31;28.27;;;23.20;;
5937;SDS011;2994;51.220;4.412;2022-12-17T04:44:15;26.13;;;23.50;;
5937;SDS011;2994;51.220;4.412;2022-12-17T04:46:59;26.33;;;23.60;;
5937;SDS011;2994;51.220;4.412;2022-12-17T04:49:43;26.83;;;24.10;;
5937;SDS011;2994;51.220;4.412;2022-12-17T04:52:27;26.40;;;23.70;;
5937;SDS011;2994;51.220;4.412;2022-12-17T04:55:11;27.43;;;23.80;;
5937;SDS011;2994;51.220;4.412;2022-12-17T04:58:00;26.70;;;23.67;;
5937;SDS011;2994;51.220;4.412;2022-12-17T05:00:45;29.47;;;24.77;;
5937;SDS011;2994;51.220;4.412;2022-12-17T05:03:29;25.67;;;22.97;;
5937;SDS011;2994;51.220;4.412;2022-12-17T05:06:13;26.27;;;23.57;;
5937;SDS011;2994;51.220;4.412;2022-12-17T05:08:56;27.33;;;24.40;;
5937;SDS011;2994;51.220;4.412;2022-12-17T05:11:40;27.20;;;24.03;;
5937;SDS011;2994;51.220;4.412;2022-12-17T05:14:24;31.53;;;25.23;;
5937;SDS011;2994;51.220;4.412;2022-12-17T05:17:08;28.10;;;24.60;;
5937;SDS011;2994;51.220;4.412;2022-12-17T05:19:52;28.20;;;25.27;;
5937;SDS011;2994;51.220;4.412;2022-12-17T05:22:36;26.77;;;23.90;;
5937;SDS011;2994;51.220;4.412;2022-12-17T05:25:20;27.90;;;24.00;;
5937;SDS011;2994;51.220;4.412;2022-12-17T05:28:04;26.87;;;24.07;;
5937;SDS011;2994;51.220;4.412;2022-12-17T05:30:51;26.63;;;23.90;;
5937;SDS011;2994;51.220;4.412;2022-12-17T05:33:36;26.80;;;24.00;;
5937;SDS011;2994;51.220;4.412;2022-12-17T05:36:20;30.47;;;24.57;;
5937;SDS011;2994;51.220;4.412;2022-12-17T05:39:04;28.10;;;25.07;;
5937;SDS011;2994;51.220;4.412;2022-12-17T05:41:48;29.00;;;25.57;;
5937;SDS011;2994;51.220;4.412;2022-12-17T05:44:32;28.23;;;23.50;;
5937;SDS011;2994;51.220;4.412;2022-12-17T05:47:16;26.10;;;23.40;;
5937;SDS011;2994;51.220;4.412;2022-12-17T05:50:13;27.53;;;24.77;;
5937;SDS011;2994;51.220;4.412;2022-12-17T05:53:04;26.80;;;24.07;;
5937;SDS011;2994;51.220;4.412;2022-12-17T05:55:51;26.80;;;24.00;;
5937;SDS011;2994;51.220;4.412;2022-12-17T05:58:36;27.10;;;23.27;;
5937;SDS011;2994;51.220;4.412;2022-12-17T06:01:20;26.13;;;23.40;;
5937;SDS011;2994;51.220;4.412;2022-12-17T06:04:04;28.63;;;25.30;;
5937;SDS011;2994;51.220;4.412;2022-12-17T06:06:50;29.70;;;25.47;;
5937;SDS011;2994;51.220;4.412;2022-12-17T06:09:34;32.40;;;26.40;;
5937;SDS011;2994;51.220;4.412;2022-12-17T06:12:22;26.40;;;23.50;;
5937;SDS011;2994;51.220;4.412;2022-12-17T06:15:06;28.07;;;24.67;;
5937;SDS011;2994;51.220;4.412;2022-12-17T06:17:53;28.00;;;24.97;;
5937;SDS011;2994;51.220;4.412;2022-12-17T06:20:38;27.57;;;24.80;;
5937;SDS011;2994;51.220;4.412;2022-12-17T06:23:22;27.67;;;24.67;;
5937;SDS011;2994;51.220;4.412;2022-12-17T06:26:06;26.97;;;24.40;;
5937;SDS011;2994;51.220;4.412;2022-12-17T06:28:50;27.83;;;24.83;;
5937;SDS011;2994;51.220;4.412;2022-12-17T06:31:39;31.20;;;25.57;;
5937;SDS011;2994;51.220;4.412;2022-12-17T06:34:23;26.13;;;23.60;;
5937;SDS011;2994;51.220;4.412;2022-12-17T06:37:10;25.63;;;22.83;;
5937;SDS011;2994;51.220;4.412;2022-12-17T06:39:54;26.90;;;24.03;;
5937;SDS011;2994;51.220;4.412;2022-12-17T06:42:38;28.20;;;25.10;;
5937;SDS011;2994;51.220;4.412;2022-12-17T06:45:22;28.50;;;25.60;;
5937;SDS011;2994;51.220;4.412;2022-12-17T06:48:06;29.80;;;26.40;;
5937;SDS011;2994;51.220;4.412;2022-12-17T06:50:54;29.00;;;25.47;;
5937;SDS011;2994;51.220;4.412;2022-12-17T06:53:39;26.77;;;23.97;;
5937;SDS011;2994;51.220;4.412;2022-12-17T06:56:23;27.60;;;25.00;;
5937;SDS011;2994;51.220;4.412;2022-12-17T06:59:07;28.77;;;24.77;;
5937;SDS011;2994;51.220;4.412;2022-12-17T07:01:51;27.73;;;23.60;;
5937;SDS011;2994;51.220;4.412;2022-12-17T07:04:35;26.87;;;23.97;;
5937;SDS011;2994;51.220;4.412;2022-12-17T07:07:19;26.30;;;23.47;;
5937;SDS011;2994;51.220;4.412;2022-12-17T07:10:03;27.03;;;24.13;;
5937;SDS011;2994;51.220;4.412;2022-12-17T07:12:47;26.30;;;23.50;;
5937;SDS011;2994;51.220;4.412;2022-12-17T07:15:31;30.00;;;25.37;;
5937;SDS011;2994;51.220;4.412;2022-12-17T07:18:15;30.10;;;27.00;;
5937;SDS011;2994;51.220;4.412;2022-12-17T07:20:59;32.07;;;26.73;;
5937;SDS011;2994;51.220;4.412;2022-12-17T07:23:43;36.60;;;28.13;;
5937;SDS011;2994;51.220;4.412;2022-12-17T07:26:27;30.23;;;27.03;;
5937;SDS011;2994;51.220;4.412;2022-12-17T07:29:11;26.57;;;23.80;;
5937;SDS011;2994;51.220;4.412;2022-12-17T07:31:55;31.93;;;26.40;;
5937;SDS011;2994;51.220;4.412;2022-12-17T07:34:39;30.27;;;27.07;;
5937;SDS011;2994;51.220;4.412;2022-12-17T07:37:23;32.20;;;28.03;;
5937;SDS011;2994;51.220;4.412;2022-12-17T07:40:07;32.90;;;27.70;;
5937;SDS011;2994;51.220;4.412;2022-12-17T07:42:51;30.57;;;27.27;;
5937;SDS011;2994;51.220;4.412;2022-12-17T07:45:35;29.17;;;25.93;;
5937;SDS011;2994;51.220;4.412;2022-12-17T07:48:19;31.37;;;27.87;;
5937;SDS011;2994;51.220;4.412;2022-12-17T07:51:03;32.30;;;28.90;;
5937;SDS011;2994;51.220;4.412;2022-12-17T07:53:47;31.03;;;27.70;;
5937;SDS011;2994;51.220;4.412;2022-12-17T07:56:31;37.70;;;28.87;;
5937;SDS011;2994;51.220;4.412;2022-12-17T07:59:15;31.07;;;27.70;;
5937;SDS011;2994;51.220;4.412;2022-12-17T08:02:01;32.73;;;28.33;;
5937;SDS011;2994;51.220;4.412;2022-12-17T08:04:45;34.60;;;30.03;;
5937;SDS011;2994;51.220;4.412;2022-12-17T08:07:29;32.87;;;29.27;;
5937;SDS011;2994;51.220;4.412;2022-12-17T08:10:13;36.60;;;30.23;;
5937;SDS011;2994;51.220;4.412;2022-12-17T08:13:00;35.80;;;30.10;;
5937;SDS011;2994;51.220;4.412;2022-12-17T08:15:46;33.90;;;29.27;;
5937;SDS011;2994;51.220;4.412;2022-12-17T08:18:30;38.87;;;31.00;;
5937;SDS011;2994;51.220;4.412;2022-12-17T08:21:14;37.77;;;30.70;;
5937;SDS011;2994;51.220;4.412;2022-12-17T08:23:58;38.67;;;31.70;;
5937;SDS011;2994;51.220;4.412;2022-12-17T08:26:42;33.57;;;29.97;;
5937;SDS011;2994;51.220;4.412;2022-12-17T08:29:26;40.80;;;33.57;;
5937;SDS011;2994;51.220;4.412;2022-12-17T08:32:13;36.23;;;29.80;;
5937;SDS011;2994;51.220;4.412;2022-12-17T08:34:57;40.80;;;33.70;;
5937;SDS011;2994;51.220;4.412;2022-12-17T08:37:41;37.87;;;30.43;;
5937;SDS011;2994;51.220;4.412;2022-12-17T08:40:25;40.47;;;33.60;;
5937;SDS011;2994;51.220;4.412;2022-12-17T08:43:08;36.67;;;31.70;;
5937;SDS011;2994;51.220;4.412;2022-12-17T08:45:52;39.73;;;32.50;;
5937;SDS011;2994;51.220;4.412;2022-12-17T08:48:36;35.50;;;31.63;;
5937;SDS011;2994;51.220;4.412;2022-12-17T08:51:22;41.40;;;31.67;;
5937;SDS011;2994;51.220;4.412;2022-12-17T08:54:06;37.23;;;31.33;;
5937;SDS011;2994;51.220;4.412;2022-12-17T08:56:50;37.93;;;31.47;;
5937;SDS011;2994;51.220;4.412;2022-12-17T08:59:34;33.17;;;29.67;;
5937;SDS011;2994;51.220;4.412;2022-12-17T09:02:18;41.30;;;32.80;;
5937;SDS011;2994;51.220;4.412;2022-12-17T09:05:02;34.43;;;30.80;;
5937;SDS011;2994;51.220;4.412;2022-12-17T09:07:46;38.67;;;30.00;;
5937;SDS011;2994;51.220;4.412;2022-12-17T09:10:30;41.77;;;31.37;;
5937;SDS011;2994;51.220;4.412;2022-12-17T09:13:14;44.57;;;34.17;;
5937;SDS011;2994;51.220;4.412;2022-12-17T09:15:57;42.60;;;33.83;;
5937;SDS011;2994;51.220;4.412;2022-12-17T09:18:42;42.27;;;32.10;;
5937;SDS011;2994;51.220;4.412;2022-12-17T09:21:26;39.33;;;32.33;;
5937;SDS011;2994;51.220;4.412;2022-12-17T09:24:11;37.00;;;32.20;;
5937;SDS011;2994;51.220;4.412;2022-12-17T09:26:55;39.40;;;32.50;;
5937;SDS011;2994;51.220;4.412;2022-12-17T09:29:39;37.87;;;31.60;;
5937;SDS011;2994;51.220;4.412;2022-12-17T09:32:23;42.87;;;32.53;;
5937;SDS011;2994;51.220;4.412;2022-12-17T09:35:07;41.50;;;31.70;;
5937;SDS011;2994;51.220;4.412;2022-12-17T09:37:54;38.27;;;31.63;;
5937;SDS011;2994;51.220;4.412;2022-12-17T09:40:39;36.50;;;32.10;;
5937;SDS011;2994;51.220;4.412;2022-12-17T09:43:35;40.10;;;34.20;;
5937;SDS011;2994;51.220;4.412;2022-12-17T09:49:32;37.50;;;32.83;;
5937;SDS011;2994;51.220;4.412;2022-12-17T09:52:23;36.97;;;32.87;;
5937;SDS011;2994;51.220;4.412;2022-12-17T09:55:16;46.50;;;36.90;;
5937;SDS011;2994;51.220;4.412;2022-12-17T09:58:04;46.80;;;35.70;;
5937;SDS011;2994;51.220;4.412;2022-12-17T10:00:49;40.70;;;35.73;;
5937;SDS011;2994;51.220;4.412;2022-12-17T10:03:36;41.30;;;34.13;;
5937;SDS011;2994;51.220;4.412;2022-12-17T10:06:22;38.30;;;33.40;;
5937;SDS011;2994;51.220;4.412;2022-12-17T10:09:13;43.10;;;33.73;;
5937;SDS011;2994;51.220;4.412;2022-12-17T10:12:04;43.50;;;34.60;;
5937;SDS011;2994;51.220;4.412;2022-12-17T10:14:54;43.63;;;35.00;;
5937;SDS011;2994;51.220;4.412;2022-12-17T10:17:38;47.83;;;37.07;;
5937;SDS011;2994;51.220;4.412;2022-12-17T10:20:23;43.67;;;35.37;;
5937;SDS011;2994;51.220;4.412;2022-12-17T10:23:25;40.53;;;35.10;;
5937;SDS011;2994;51.220;4.412;2022-12-17T10:26:15;45.33;;;35.47;;
5937;SDS011;2994;51.220;4.412;2022-12-17T10:29:02;46.73;;;35.83;;
5937;SDS011;2994;51.220;4.412;2022-12-17T10:31:54;40.57;;;32.97;;
5937;SDS011;2994;51.220;4.412;2022-12-17T10:34:42;40.37;;;34.07;;
5937;SDS011;2994;51.220;4.412;2022-12-17T10:37:28;43.33;;;33.20;;
5937;SDS011;2994;51.220;4.412;2022-12-17T10:40:30;43.97;;;35.77;;
5937;SDS011;2994;51.220;4.412;2022-12-17T10:46:08;41.07;;;34.10;;
5937;SDS011;2994;51.220;4.412;2022-12-17T10:49:02;40.47;;;34.97;;
5937;SDS011;2994;51.220;4.412;2022-12-17T10:51:47;45.57;;;35.50;;
5937;SDS011;2994;51.220;4.412;2022-12-17T10:54:32;42.03;;;33.47;;
5937;SDS011;2994;51.220;4.412;2022-12-17T10:57:29;47.03;;;35.50;;
5937;SDS011;2994;51.220;4.412;2022-12-17T11:03:24;46.33;;;34.07;;
5937;SDS011;2994;51.220;4.412;2022-12-17T11:06:09;46.50;;;36.33;;
5937;SDS011;2994;51.220;4.412;2022-12-17T11:08:57;48.23;;;35.47;;
5937;SDS011;2994;51.220;4.412;2022-12-17T11:11:44;46.33;;;34.90;;
5937;SDS011;2994;51.220;4.412;2022-12-17T11:14:31;45.53;;;34.17;;
5937;SDS011;2994;51.220;4.412;2022-12-17T11:17:22;43.23;;;34.90;;
5937;SDS011;2994;51.220;4.412;2022-12-17T11:20:13;43.57;;;33.00;;
5937;SDS011;2994;51.220;4.412;2022-12-17T11:23:04;42.30;;;34.63;;
5937;SDS011;2994;51.220;4.412;2022-12-17T11:25:59;40.13;;;34.27;;
5937;SDS011;2994;51.220;4.412;2022-12-17T11:28:45;44.13;;;33.23;;
5937;SDS011;2994;51.220;4.412;2022-12-17T11:34:28;45.63;;;33.07;;
5937;SDS011;2994;51.220;4.412;2022-12-17T11:37:21;46.87;;;35.23;;
5937;SDS011;2994;51.220;4.412;2022-12-17T11:40:20;46.03;;;33.33;;
5937;SDS011;2994;51.220;4.412;2022-12-17T11:46:16;45.50;;;32.90;;
5937;SDS011;2994;51.220;4.412;2022-12-17T11:49:17;38.47;;;34.30;;
5937;SDS011;2994;51.220;4.412;2022-12-17T11:54:59;45.57;;;34.73;;
5937;SDS011;2994;51.220;4.412;2022-12-17T11:58:11;45.40;;;35.40;;
5937;SDS011;2994;51.220;4.412;2022-12-17T12:01:10;41.90;;;34.37;;
5937;SDS011;2994;51.220;4.412;2022-12-17T12:10:28;49.57;;;34.97;;
5937;SDS011;2994;51.220;4.412;2022-12-17T12:13:27;52.40;;;35.00;;
5937;SDS011;2994;51.220;4.412;2022-12-17T12:22:36;49.00;;;34.70;;
5937;SDS011;2994;51.220;4.412;2022-12-17T12:28:25;47.00;;;33.30;;
5937;SDS011;2994;51.220;4.412;2022-12-17T12:31:29;53.47;;;35.37;;
5937;SDS011;2994;51.220;4.412;2022-12-17T12:34:24;45.43;;;33.20;;
5937;SDS011;2994;51.220;4.412;2022-12-17T12:37:13;49.63;;;33.57;;
5937;SDS011;2994;51.220;4.412;2022-12-17T12:43:29;55.47;;;35.87;;
5937;SDS011;2994;51.220;4.412;2022-12-17T12:46:23;53.85;;;37.20;;
5937;SDS011;2994;51.220;4.412;2022-12-17T12:49:32;50.03;;;35.40;;
5937;SDS011;2994;51.220;4.412;2022-12-17T12:52:21;52.77;;;35.10;;
5937;SDS011;2994;51.220;4.412;2022-12-17T12:55:08;54.87;;;37.00;;
5937;SDS011;2994;51.220;4.412;2022-12-17T13:03:36;53.00;;;34.50;;
5937;SDS011;2994;51.220;4.412;2022-12-17T13:06:37;56.47;;;36.83;;
5937;SDS011;2994;51.220;4.412;2022-12-17T13:11:44;55.17;;;35.10;;
5937;SDS011;2994;51.220;4.412;2022-12-17T13:23:36;58.70;;;35.83;;
5937;SDS011;2994;51.220;4.412;2022-12-17T13:25:37;59.80;;;34.13;;
5937;SDS011;2994;51.220;4.412;2022-12-17T13:28:03;50.80;;;33.70;;
5937;SDS011;2994;51.220;4.412;2022-12-17T13:43:30;58.07;;;37.23;;
5937;SDS011;2994;51.220;4.412;2022-12-17T13:45:57;62.97;;;41.50;;
5937;SDS011;2994;51.220;4.412;2022-12-17T13:48:24;65.57;;;38.63;;
5937;SDS011;2994;51.220;4.412;2022-12-17T13:51:01;57.87;;;36.70;;
5937;SDS011;2994;51.220;4.412;2022-12-17T13:53:28;68.80;;;39.30;;
5937;SDS011;2994;51.220;4.412;2022-12-17T13:55:57;62.83;;;39.17;;
5937;SDS011;2994;51.220;4.412;2022-12-17T13:58:31;58.17;;;35.73;;
5937;SDS011;2994;51.220;4.412;2022-12-17T14:01:07;61.03;;;37.17;;
5937;SDS011;2994;51.220;4.412;2022-12-17T14:03:35;58.17;;;36.47;;
5937;SDS011;2994;51.220;4.412;2022-12-17T14:06:01;57.17;;;35.47;;
5937;SDS011;2994;51.220;4.412;2022-12-17T14:08:30;59.93;;;37.03;;
5937;SDS011;2994;51.220;4.412;2022-12-17T14:10:56;59.97;;;37.67;;
5937;SDS011;2994;51.220;4.412;2022-12-17T14:13:41;59.30;;;36.60;;
5937;SDS011;2994;51.220;4.412;2022-12-17T14:16:08;55.33;;;37.47;;
5937;SDS011;2994;51.220;4.412;2022-12-17T14:18:34;62.20;;;38.10;;
5937;SDS011;2994;51.220;4.412;2022-12-17T14:21:00;54.40;;;34.17;;
5937;SDS011;2994;51.220;4.412;2022-12-17T14:23:27;66.50;;;40.87;;
5937;SDS011;2994;51.220;4.412;2022-12-17T14:25:55;56.60;;;35.83;;
5937;SDS011;2994;51.220;4.412;2022-12-17T14:28:27;62.20;;;37.70;;
5937;SDS011;2994;51.220;4.412;2022-12-17T14:31:05;63.50;;;37.30;;
5937;SDS011;2994;51.220;4.412;2022-12-17T14:33:33;63.57;;;37.80;;
5937;SDS011;2994;51.220;4.412;2022-12-17T14:36:01;59.00;;;36.10;;
5937;SDS011;2994;51.220;4.412;2022-12-17T14:38:30;59.50;;;36.30;;
5937;SDS011;2994;51.220;4.412;2022-12-17T14:41:34;57.10;;;34.80;;
5937;SDS011;2994;51.220;4.412;2022-12-17T14:44:12;59.47;;;37.57;;
5937;SDS011;2994;51.220;4.412;2022-12-17T14:46:44;70.10;;;39.50;;
5937;SDS011;2994;51.220;4.412;2022-12-17T14:49:17;67.63;;;40.97;;
5937;SDS011;2994;51.220;4.412;2022-12-17T14:51:48;66.73;;;40.60;;
5937;SDS011;2994;51.220;4.412;2022-12-17T14:56:50;73.63;;;40.90;;
5937;SDS011;2994;51.220;4.412;2022-12-17T14:59:30;59.03;;;39.20;;
5937;SDS011;2994;51.220;4.412;2022-12-17T15:02:04;60.30;;;38.60;;
5937;SDS011;2994;51.220;4.412;2022-12-17T15:04:42;59.50;;;40.63;;
5937;SDS011;2994;51.220;4.412;2022-12-17T15:07:09;57.03;;;38.70;;
5937;SDS011;2994;51.220;4.412;2022-12-17T15:09:42;66.20;;;38.47;;
5937;SDS011;2994;51.220;4.412;2022-12-17T15:12:08;54.73;;;35.27;;
5937;SDS011;2994;51.220;4.412;2022-12-17T15:14:34;54.30;;;36.13;;
5937;SDS011;2994;51.220;4.412;2022-12-17T15:16:59;63.87;;;38.70;;
5937;SDS011;2994;51.220;4.412;2022-12-17T15:19:25;53.27;;;36.07;;
5937;SDS011;2994;51.220;4.412;2022-12-17T15:21:51;50.57;;;37.00;;
5937;SDS011;2994;51.220;4.412;2022-12-17T15:24:18;62.57;;;35.60;;
5937;SDS011;2994;51.220;4.412;2022-12-17T15:26:44;62.50;;;37.53;;
5937;SDS011;2994;51.220;4.412;2022-12-17T15:29:10;57.70;;;36.03;;
5937;SDS011;2994;51.220;4.412;2022-12-17T15:31:36;60.77;;;36.67;;
5937;SDS011;2994;51.220;4.412;2022-12-17T15:34:01;59.70;;;36.33;;
5937;SDS011;2994;51.220;4.412;2022-12-17T15:36:28;60.70;;;37.73;;
5937;SDS011;2994;51.220;4.412;2022-12-17T15:38:56;64.47;;;39.17;;
5937;SDS011;2994;51.220;4.412;2022-12-17T15:41:24;59.43;;;36.83;;
5937;SDS011;2994;51.220;4.412;2022-12-17T15:44:08;63.90;;;38.43;;
5937;SDS011;2994;51.220;4.412;2022-12-17T15:46:34;56.00;;;36.80;;
5937;SDS011;2994;51.220;4.412;2022-12-17T15:48:59;54.57;;;33.27;;
5937;SDS011;2994;51.220;4.412;2022-12-17T15:51:26;58.30;;;35.63;;
5937;SDS011;2994;51.220;4.412;2022-12-17T15:53:51;60.30;;;36.47;;
5937;SDS011;2994;51.220;4.412;2022-12-17T15:56:21;55.57;;;37.93;;
5937;SDS011;2994;51.220;4.412;2022-12-17T15:58:48;61.60;;;37.07;;
5937;SDS011;2994;51.220;4.412;2022-12-17T16:01:14;50.00;;;32.93;;
5937;SDS011;2994;51.220;4.412;2022-12-17T16:03:40;56.37;;;34.80;;
5937;SDS011;2994;51.220;4.412;2022-12-17T16:06:05;56.70;;;37.80;;
5937;SDS011;2994;51.220;4.412;2022-12-17T16:08:31;61.70;;;37.77;;
5937;SDS011;2994;51.220;4.412;2022-12-17T16:10:56;58.93;;;34.90;;
5937;SDS011;2994;51.220;4.412;2022-12-17T16:13:22;56.40;;;36.33;;
5937;SDS011;2994;51.220;4.412;2022-12-17T16:15:56;54.47;;;36.20;;
5937;SDS011;2994;51.220;4.412;2022-12-17T16:18:22;60.83;;;39.27;;
5937;SDS011;2994;51.220;4.412;2022-12-17T16:20:48;68.90;;;38.03;;
5937;SDS011;2994;51.220;4.412;2022-12-17T16:23:14;60.53;;;36.27;;
5937;SDS011;2994;51.220;4.412;2022-12-17T16:25:40;67.57;;;38.00;;
5937;SDS011;2994;51.220;4.412;2022-12-17T16:28:05;57.00;;;33.90;;
5937;SDS011;2994;51.220;4.412;2022-12-17T16:30:30;60.17;;;36.40;;
5937;SDS011;2994;51.220;4.412;2022-12-17T16:32:56;53.97;;;33.60;;
5937;SDS011;2994;51.220;4.412;2022-12-17T16:35:23;56.50;;;34.10;;
5937;SDS011;2994;51.220;4.412;2022-12-17T16:37:48;61.20;;;34.50;;
5937;SDS011;2994;51.220;4.412;2022-12-17T16:40:14;51.53;;;31.67;;
5937;SDS011;2994;51.220;4.412;2022-12-17T16:42:39;51.90;;;33.00;;
5937;SDS011;2994;51.220;4.412;2022-12-17T16:45:05;51.77;;;34.17;;
5937;SDS011;2994;51.220;4.412;2022-12-17T16:47:31;53.77;;;32.23;;
5937;SDS011;2994;51.220;4.412;2022-12-17T16:49:57;47.17;;;32.23;;
5937;SDS011;2994;51.220;4.412;2022-12-17T16:52:22;52.70;;;33.40;;
5937;SDS011;2994;51.220;4.412;2022-12-17T16:54:48;55.80;;;32.00;;
5937;SDS011;2994;51.220;4.412;2022-12-17T16:57:13;55.70;;;37.10;;
5937;SDS011;2994;51.220;4.412;2022-12-17T16:59:39;49.47;;;33.60;;
5937;SDS011;2994;51.220;4.412;2022-12-17T17:02:07;52.33;;;33.47;;
5937;SDS011;2994;51.220;4.412;2022-12-17T17:04:36;52.00;;;33.10;;
5937;SDS011;2994;51.220;4.412;2022-12-17T17:07:01;66.03;;;40.37;;
5937;SDS011;2994;51.220;4.412;2022-12-17T17:09:27;57.80;;;35.67;;
5937;SDS011;2994;51.220;4.412;2022-12-17T17:11:55;54.73;;;33.90;;
5937;SDS011;2994;51.220;4.412;2022-12-17T17:14:22;57.03;;;35.40;;
5937;SDS011;2994;51.220;4.412;2022-12-17T17:16:49;61.33;;;34.63;;
5937;SDS011;2994;51.220;4.412;2022-12-17T17:19:15;61.17;;;34.50;;
5937;SDS011;2994;51.220;4.412;2022-12-17T17:21:41;47.70;;;31.90;;
5937;SDS011;2994;51.220;4.412;2022-12-17T17:24:13;59.97;;;36.90;;
5937;SDS011;2994;51.220;4.412;2022-12-17T17:26:41;58.07;;;36.03;;
5937;SDS011;2994;51.220;4.412;2022-12-17T17:29:07;48.20;;;30.07;;
5937;SDS011;2994;51.220;4.412;2022-12-17T17:31:33;63.63;;;34.57;;
5937;SDS011;2994;51.220;4.412;2022-12-17T17:34:06;53.90;;;32.30;;